Time;durP1;ratioP1;P1;durP2;ratioP2;P2;SDS_P1;SDS_P2;PMS_P1;PMS_P2;Temp;Humidity;BMP_temperature;BMP_pressure;BME280_temperature;BME280_humidity;BME280_pressure;Samples;Min_cycle;Max_cycle;Signal;HPM_P1;HPM_P2
2023/09/30 00:01:40;;;;;;;16.40;7.60;;;;;;;18.05;79.00;100500.96;107146;1284;25425;-81
2023/09/30 00:04:11;;;;;;;20.30;8.10;;;;;;;18.02;79.16;100499.22;107085;1284;22489;-81
2023/09/30 00:06:41;;;;;;;18.30;8.00;;;;;;;18.01;79.53;100498.08;107109;1284;24904;-81
2023/09/30 00:09:13;;;;;;;17.70;7.30;;;;;;;17.98;79.69;100490.23;107108;1284;26173;-81
2023/09/30 00:11:44;;;;;;;19.10;7.70;;;;;;;17.96;80.14;100492.45;107055;1284;22589;-81
2023/09/30 00:14:14;;;;;;;20.50;8.00;;;;;;;17.94;80.28;100494.57;106987;1284;24262;-81
2023/09/30 00:16:45;;;;;;;19.80;8.80;;;;;;;17.93;80.49;100491.30;107109;1270;22537;-81
2023/09/30 00:19:15;;;;;;;21.80;8.20;;;;;;;17.92;80.69;100493.30;107033;1284;23924;-82
2023/09/30 00:21:46;;;;;;;16.10;6.70;;;;;;;17.89;81.00;100496.51;107084;1284;26578;-81
2023/09/30 00:24:17;;;;;;;21.00;8.10;;;;;;;17.87;81.10;100496.11;107064;1280;24241;-81
2023/09/30 00:26:47;;;;;;;19.40;8.00;;;;;;;17.84;81.43;100494.73;107099;1284;25036;-83
2023/09/30 00:29:18;;;;;;;15.50;7.40;;;;;;;17.83;81.59;100496.29;107155;1284;22576;-81
2023/09/30 00:31:48;;;;;;;18.10;7.50;;;;;;;17.81;81.84;100493.98;107280;1284;23268;-82
2023/09/30 00:34:19;;;;;;;20.80;8.30;;;;;;;17.79;82.14;100494.45;107178;1280;22944;-80
2023/09/30 00:36:50;;;;;;;18.60;7.80;;;;;;;17.77;82.31;100496.02;107107;1284;22560;-80
2023/09/30 00:39:20;;;;;;;19.30;7.60;;;;;;;17.75;82.64;100497.88;108042;1284;24324;-81
2023/09/30 00:41:51;;;;;;;19.20;8.00;;;;;;;17.71;82.82;100499.95;108132;1284;22616;-81
2023/09/30 00:44:22;;;;;;;17.80;7.50;;;;;;;17.64;83.50;100500.52;107105;1284;23097;-81
2023/09/30 00:46:54;;;;;;;17.10;7.30;;;;;;;17.60;83.47;100503.52;107152;1283;25025;-81
2023/09/30 00:49:26;;;;;;;18.40;7.80;;;;;;;17.59;83.85;100503.91;109809;1284;22191;-82
2023/09/30 00:51:57;;;;;;;20.40;8.80;;;;;;;17.59;83.92;100503.15;109800;1284;22269;-81
2023/09/30 00:54:30;;;;;;;18.00;7.40;;;;;;;17.60;84.11;100505.25;109792;1283;23030;-81
2023/09/30 00:57:01;;;;;;;18.90;7.90;;;;;;;17.62;84.07;100498.36;109806;1284;22410;-81
2023/09/30 00:59:33;;;;;;;20.80;7.30;;;;;;;17.64;84.15;100495.48;109808;1284;22256;-82
2023/09/30 01:02:05;;;;;;;18.50;6.80;;;;;;;17.66;84.48;100496.80;109811;1284;22351;-82
2023/09/30 01:04:37;;;;;;;17.10;7.70;;;;;;;17.66;84.57;100493.73;109839;1284;22196;-82
2023/09/30 01:07:08;;;;;;;18.00;7.40;;;;;;;17.67;84.79;100498.23;109849;1284;22521;-83
2023/09/30 01:09:39;;;;;;;16.40;7.80;;;;;;;17.68;84.93;100501.27;109797;1284;22163;-83
2023/09/30 01:12:10;;;;;;;18.20;6.90;;;;;;;17.67;84.91;100499.67;109814;1284;22310;-83
2023/09/30 01:14:42;;;;;;;19.20;6.80;;;;;;;17.69;85.05;100502.38;109824;1284;22155;-82
2023/09/30 01:17:13;;;;;;;15.90;7.20;;;;;;;17.69;85.00;100504.80;109824;1283;22233;-83
2023/09/30 01:19:44;;;;;;;17.60;7.30;;;;;;;17.69;85.00;100506.94;109825;1280;22204;-82
2023/09/30 01:22:14;;;;;;;16.50;7.10;;;;;;;17.71;84.96;100509.41;109824;1283;23142;-84
2023/09/30 01:24:47;;;;;;;16.10;6.50;;;;;;;17.71;85.16;100514.23;109803;1284;22936;-83
2023/09/30 01:27:19;;;;;;;20.80;7.90;;;;;;;17.72;85.06;100510.52;109818;1284;22205;-84
2023/09/30 01:29:50;;;;;;;19.20;7.50;;;;;;;17.72;85.25;100511.40;109799;1284;22439;-83
2023/09/30 01:32:21;;;;;;;20.80;7.40;;;;;;;17.72;85.19;100514.75;109806;1284;22171;-82
2023/09/30 01:34:51;;;;;;;16.20;6.70;;;;;;;17.71;85.19;100509.98;109849;1283;22158;-83
2023/09/30 01:37:22;;;;;;;17.90;7.10;;;;;;;17.69;85.27;100510.74;109824;1284;22151;-83
2023/09/30 01:39:54;;;;;;;17.80;6.60;;;;;;;17.69;85.32;100509.02;109819;1284;23308;-83
2023/09/30 01:42:25;;;;;;;16.90;7.30;;;;;;;17.70;85.23;100513.41;109820;1280;22167;-83
2023/09/30 01:44:56;;;;;;;18.70;6.80;;;;;;;17.72;85.48;100515.45;109837;1284;23127;-84
2023/09/30 01:47:27;;;;;;;19.90;7.70;;;;;;;17.74;85.62;100514.57;109453;1284;22555;-82
2023/09/30 01:49:59;;;;;;;17.20;6.40;;;;;;;17.76;85.65;100516.55;107988;1273;24274;-85
2023/09/30 01:52:30;;;;;;;18.50;6.50;;;;;;;17.79;85.65;100518.75;107862;1280;25909;-84
2023/09/30 01:55:00;;;;;;;14.20;6.00;;;;;;;17.82;85.79;100520.13;107678;1284;22545;-82
2023/09/30 01:57:31;;;;;;;18.90;6.30;;;;;;;17.86;85.74;100519.94;107454;1284;24310;-81
2023/09/30 02:00:02;;;;;;;15.40;6.00;;;;;;;17.88;85.88;100518.23;107789;1284;22642;-83
2023/09/30 02:02:33;;;;;;;16.60;6.40;;;;;;;17.89;85.95;100514.89;107831;1281;25364;-83
2023/09/30 02:05:04;;;;;;;16.20;6.10;;;;;;;17.91;86.01;100518.89;108288;1284;22789;-82
2023/09/30 02:07:35;;;;;;;16.10;6.80;;;;;;;17.92;86.01;100518.20;108538;1283;22928;-82
2023/09/30 02:10:07;;;;;;;20.00;7.00;;;;;;;17.93;86.01;100518.45;108025;1284;25501;-82
2023/09/30 02:12:38;;;;;;;18.30;6.10;;;;;;;17.95;85.87;100518.50;108039;1284;22562;-82
2023/09/30 02:15:11;;;;;;;17.40;5.70;;;;;;;17.97;85.93;100514.67;107875;1283;22970;-82
2023/09/30 02:17:45;;;;;;;15.40;5.40;;;;;;;17.99;85.84;100516.78;107816;1283;22574;-86
2023/09/30 02:20:19;;;;;;;14.70;5.60;;;;;;;18.03;85.77;100517.83;107781;1284;22555;-82
2023/09/30 02:22:50;;;;;;;13.00;4.50;;;;;;;18.06;85.92;100517.23;107813;1284;22625;-82
2023/09/30 02:25:21;;;;;;;13.40;4.20;;;;;;;18.09;85.80;100517.16;107685;1284;22617;-82
2023/09/30 02:27:52;;;;;;;8.10;3.20;;;;;;;18.14;85.74;100514.10;107665;1266;24289;-82
2023/09/30 02:30:23;;;;;;;11.00;3.70;;;;;;;18.22;85.59;100513.47;107760;1284;23896;-83
2023/09/30 02:33:35;;;;;;;11.20;2.80;;;;;;;18.31;85.58;100517.31;107773;1284;22693;-83
2023/09/30 02:36:16;;;;;;;16.10;3.10;;;;;;;18.43;85.40;100516.61;108007;1283;22601;-82
2023/09/30 02:38:47;;;;;;;15.10;3.60;;;;;;;18.51;85.20;100521.73;107947;1284;22534;-83
2023/09/30 02:41:19;;;;;;;12.10;2.60;;;;;;;18.56;85.10;100525.14;107924;1284;23179;-82
2023/09/30 02:43:49;;;;;;;10.10;2.60;;;;;;;18.61;84.88;100527.20;107976;1284;23791;-83
2023/09/30 02:46:20;;;;;;;13.60;3.70;;;;;;;18.68;84.73;100529.92;107992;1284;22790;-82
2023/09/30 02:48:51;;;;;;;10.40;3.40;;;;;;;18.72;84.53;100534.04;107953;1284;22680;-83
2023/09/30 02:51:22;;;;;;;13.90;2.90;;;;;;;18.77;84.43;100533.95;108018;1284;22559;-82
2023/09/30 02:53:53;;;;;;;15.60;4.60;;;;;;;18.81;84.24;100534.17;107910;1284;22571;-83
2023/09/30 02:56:26;;;;;;;13.00;3.10;;;;;;;18.84;84.27;100535.88;107762;1284;22622;-82
2023/09/30 02:58:56;;;;;;;11.30;2.90;;;;;;;18.87;84.16;100545.98;107763;1269;22537;-82
2023/09/30 03:01:27;;;;;;;11.60;3.30;;;;;;;18.89;84.06;100543.76;107729;1284;24261;-82
2023/09/30 03:03:58;;;;;;;12.10;3.20;;;;;;;18.90;83.94;100542.81;107856;1284;22553;-82
2023/09/30 03:06:29;;;;;;;11.60;3.00;;;;;;;18.91;83.82;100541.62;107851;1284;25192;-82
2023/09/30 03:09:00;;;;;;;13.20;2.50;;;;;;;18.93;83.78;100544.08;107928;1284;22578;-82
2023/09/30 03:11:31;;;;;;;12.10;2.90;;;;;;;18.95;83.58;100550.70;108108;1282;22563;-82
2023/09/30 03:14:02;;;;;;;13.20;3.30;;;;;;;18.97;83.56;100551.39;107965;1280;23072;-85
2023/09/30 03:16:33;;;;;;;20.40;3.60;;;;;;;19.00;83.40;100552.69;107919;1284;26539;-82
2023/09/30 03:19:08;;;;;;;11.40;2.40;;;;;;;19.02;83.27;100551.02;107916;1284;22600;-82
2023/09/30 03:21:39;;;;;;;10.80;2.90;;;;;;;19.03;83.15;100552.81;107904;1284;22729;-82
2023/09/30 03:24:12;;;;;;;7.70;2.30;;;;;;;19.05;83.07;100549.30;107742;1284;22496;-82
2023/09/30 03:26:43;;;;;;;12.40;3.00;;;;;;;19.04;82.99;100544.56;107740;1284;22571;-82
2023/09/30 03:29:14;;;;;;;10.30;2.60;;;;;;;19.05;82.91;100546.47;107700;1284;22499;-82
2023/09/30 03:31:44;;;;;;;12.80;3.50;;;;;;;19.04;82.87;100547.86;107738;1283;22570;-82
2023/09/30 03:34:16;;;;;;;12.70;3.00;;;;;;;19.02;82.83;100555.55;107841;1284;22579;-81
2023/09/30 03:36:47;;;;;;;8.90;2.30;;;;;;;19.02;82.82;100561.98;107869;1284;22659;-82
2023/09/30 03:39:26;;;;;;;14.60;3.20;;;;;;;19.00;82.71;100568.55;107990;1284;22510;-82
2023/09/30 03:41:59;;;;;;;12.60;2.50;;;;;;;18.97;82.61;100573.14;107926;1284;22586;-84
2023/09/30 03:44:30;;;;;;;9.90;2.70;;;;;;;18.94;82.58;100569.73;108000;1284;23181;-82
2023/09/30 03:47:00;;;;;;;9.00;2.10;;;;;;;18.92;82.55;100569.96;107947;1284;22563;-82
2023/09/30 03:49:32;;;;;;;13.40;3.60;;;;;;;18.89;82.55;100572.77;108091;1284;22634;-82
2023/09/30 03:52:04;;;;;;;14.20;3.10;;;;;;;18.84;82.48;100571.10;108003;1284;24321;-82
2023/09/30 03:54:35;;;;;;;12.70;2.80;;;;;;;18.81;82.53;100573.71;107862;1284;25438;-82
2023/09/30 03:57:05;;;;;;;18.80;3.10;;;;;;;18.78;82.51;100571.88;107882;1284;22560;-82
2023/09/30 03:59:36;;;;;;;11.80;2.90;;;;;;;18.76;82.56;100579.92;107813;1284;25414;-84
2023/09/30 04:02:08;;;;;;;11.20;3.10;;;;;;;18.73;82.57;100585.09;107702;1284;22556;-83
2023/09/30 04:04:38;;;;;;;10.40;2.90;;;;;;;18.71;82.66;100583.88;107781;1284;22756;-82
2023/09/30 04:07:10;;;;;;;10.40;2.90;;;;;;;18.69;82.72;100593.31;107805;1284;23148;-81
2023/09/30 04:09:40;;;;;;;10.80;2.80;;;;;;;18.67;82.74;100592.81;107927;1283;22533;-82
2023/09/30 04:12:11;;;;;;;15.00;3.20;;;;;;;18.66;82.84;100593.65;108050;1283;23056;-82
2023/09/30 04:14:42;;;;;;;11.40;2.90;;;;;;;18.65;82.95;100598.33;108141;1284;22542;-83
2023/09/30 04:17:12;;;;;;;12.30;3.00;;;;;;;18.65;83.00;100603.88;108063;1284;24314;-83
2023/09/30 04:19:43;;;;;;;13.10;2.60;;;;;;;18.65;83.12;100607.98;107949;1284;22560;-81
2023/09/30 04:22:16;;;;;;;11.00;3.00;;;;;;;18.66;83.06;100603.11;107986;1284;22962;-82
2023/09/30 04:24:46;;;;;;;8.50;2.60;;;;;;;18.65;83.03;100605.53;107932;1284;24367;-83
2023/09/30 04:27:17;;;;;;;12.70;2.90;;;;;;;18.64;83.14;100613.41;107827;1284;22922;-82
2023/09/30 04:29:49;;;;;;;11.00;3.20;;;;;;;18.61;83.22;100613.94;107702;1284;25458;-81
2023/09/30 04:32:20;;;;;;;14.90;3.30;;;;;;;18.58;83.37;100608.92;107764;1284;22569;-81
2023/09/30 04:34:51;;;;;;;13.80;3.10;;;;;;;18.54;83.61;100610.96;107957;1284;22556;-81
2023/09/30 04:37:22;;;;;;;14.70;3.50;;;;;;;18.52;83.60;100619.20;107150;1276;22557;-86
2023/09/30 04:39:53;;;;;;;14.30;2.60;;;;;;;18.49;83.58;100625.59;108084;1284;22569;-84
2023/09/30 04:42:25;;;;;;;13.30;2.80;;;;;;;18.47;83.81;100627.88;108113;1284;22559;-82
2023/09/30 04:44:56;;;;;;;9.40;2.40;;;;;;;18.45;83.92;100634.56;108066;1283;22972;-82
2023/09/30 04:47:27;;;;;;;11.90;2.90;;;;;;;18.43;84.03;100635.70;107912;1276;22637;-80
2023/09/30 04:49:58;;;;;;;13.50;3.30;;;;;;;18.41;84.29;100638.16;106711;1277;24262;-79
2023/09/30 04:52:29;;;;;;;12.60;2.60;;;;;;;18.39;84.27;100639.98;106801;1277;26640;-79
2023/09/30 04:55:00;;;;;;;13.20;3.20;;;;;;;18.36;84.29;100639.06;107056;1283;22595;-79
2023/09/30 04:57:31;;;;;;;12.60;3.20;;;;;;;18.33;84.26;100639.23;106910;1277;22568;-79
2023/09/30 05:00:10;;;;;;;15.20;3.00;;;;;;;18.31;84.43;100648.09;109805;1274;22259;-79
2023/09/30 05:02:41;;;;;;;13.40;3.20;;;;;;;18.29;84.49;100656.73;109808;1284;22970;-80
2023/09/30 05:05:12;;;;;;;12.80;3.00;;;;;;;18.28;84.69;100661.88;109788;1284;22179;-79
2023/09/30 05:07:46;;;;;;;9.70;2.30;;;;;;;18.26;84.97;100657.94;109741;1280;22382;-80
2023/09/30 05:10:17;;;;;;;13.50;3.60;;;;;;;18.24;85.00;100657.74;109775;1283;22222;-79
2023/09/30 05:12:48;;;;;;;11.60;2.40;;;;;;;18.24;85.03;100665.61;109803;1283;22340;-80
2023/09/30 05:15:21;;;;;;;16.10;3.10;;;;;;;18.25;85.11;100673.61;109732;1283;23073;-79
2023/09/30 05:17:52;;;;;;;12.60;3.50;;;;;;;18.25;85.09;100679.16;109772;1278;22912;-80
2023/09/30 05:20:24;;;;;;;13.10;3.40;;;;;;;18.26;85.21;100689.54;109787;1276;23135;-79
2023/09/30 05:22:55;;;;;;;11.80;3.30;;;;;;;18.25;85.18;100693.60;109805;1276;22181;-81
2023/09/30 05:25:26;;;;;;;12.50;2.80;;;;;;;18.25;85.31;100692.17;109812;1276;22250;-80
2023/09/30 05:27:57;;;;;;;12.70;2.60;;;;;;;18.25;85.39;100688.89;109780;1277;22999;-79
2023/09/30 05:30:28;;;;;;;12.30;3.00;;;;;;;18.25;85.27;100691.09;109790;1277;22311;-80
2023/09/30 05:32:59;;;;;;;14.20;3.20;;;;;;;18.27;85.33;100689.58;109809;1283;22382;-79
2023/09/30 05:35:30;;;;;;;14.70;3.20;;;;;;;18.28;85.42;100698.98;109811;1270;22232;-82
2023/09/30 05:38:03;;;;;;;11.70;3.10;;;;;;;18.27;85.55;100702.12;109500;1276;22619;-81
2023/09/30 05:40:36;;;;;;;13.20;3.00;;;;;;;18.26;85.49;100704.03;107969;1277;26586;-79
2023/09/30 05:43:07;;;;;;;14.20;3.10;;;;;;;18.26;85.54;100706.04;107315;1277;22663;-81
2023/09/30 05:45:48;;;;;;;15.00;3.60;;;;;;;18.27;85.68;100716.55;108251;1283;23397;-82
2023/09/30 05:48:20;;;;;;;13.90;2.40;;;;;;;18.27;85.75;100717.39;108125;1280;22633;-82
2023/09/30 05:50:51;;;;;;;9.50;2.30;;;;;;;18.27;85.86;100723.05;108011;1283;22667;-78
2023/09/30 05:53:22;;;;;;;15.20;3.50;;;;;;;18.29;85.89;100730.38;107817;1276;22524;-79
2023/09/30 05:55:53;;;;;;;11.10;2.50;;;;;;;18.30;86.05;100726.16;107368;1280;22530;-79
2023/09/30 05:58:24;;;;;;;11.20;2.50;;;;;;;18.32;86.14;100721.98;107257;1268;25308;-80
2023/09/30 06:00:55;;;;;;;11.10;2.90;;;;;;;18.33;86.06;100719.52;107416;1277;23444;-81
2023/09/30 06:03:29;;;;;;;13.30;2.70;;;;;;;18.34;86.16;100720.08;107517;1280;23990;-78
2023/09/30 06:06:00;;;;;;;13.00;3.50;;;;;;;18.34;86.23;100719.98;109759;1276;22261;-80
2023/09/30 06:08:31;;;;;;;13.00;3.00;;;;;;;18.35;86.31;100719.20;109770;1277;22731;-79
2023/09/30 06:11:02;;;;;;;11.10;2.50;;;;;;;18.35;86.30;100719.55;109757;1283;22401;-79
2023/09/30 06:13:34;;;;;;;13.90;3.00;;;;;;;18.36;86.41;100721.44;109747;1276;22332;-79
2023/09/30 06:16:06;;;;;;;11.00;2.80;;;;;;;18.36;86.69;100733.98;109753;1280;23129;-79
2023/09/30 06:18:36;;;;;;;14.30;2.80;;;;;;;18.36;86.66;100735.21;109746;1280;22330;-79
2023/09/30 06:21:10;;;;;;;14.30;2.80;;;;;;;18.36;87.02;100744.02;109756;1277;23212;-80
2023/09/30 06:23:41;;;;;;;12.60;3.00;;;;;;;18.37;86.77;100743.39;109764;1271;22349;-79
2023/09/30 06:26:12;;;;;;;12.30;2.60;;;;;;;18.38;86.93;100751.14;109758;1277;22219;-79
2023/09/30 06:28:42;;;;;;;11.40;2.60;;;;;;;18.37;87.20;100751.45;109802;1273;22175;-79
2023/09/30 06:31:13;;;;;;;11.40;2.90;;;;;;;18.33;87.08;100757.66;109835;1283;22175;-79
2023/09/30 06:33:44;;;;;;;11.80;2.40;;;;;;;18.30;87.10;100763.77;109753;1283;22359;-80
2023/09/30 06:36:15;;;;;;;10.50;2.00;;;;;;;18.26;87.03;100775.65;109770;1280;24937;-79
2023/09/30 06:38:48;;;;;;;6.90;1.60;;;;;;;18.19;86.71;100787.60;109766;1277;22155;-79
2023/09/30 06:41:19;;;;;;;9.00;1.10;;;;;;;18.08;85.36;100804.39;109798;1283;23434;-80
2023/09/30 06:43:51;;;;;;;5.50;0.80;;;;;;;17.97;84.82;100806.16;109775;1283;22181;-80
2023/09/30 06:46:23;;;;;;;3.50;0.50;;;;;;;17.86;84.32;100815.06;109751;1283;22177;-80
2023/09/30 06:48:54;;;;;;;5.70;0.70;;;;;;;17.76;84.21;100818.63;109814;1277;22314;-79
2023/09/30 06:51:26;;;;;;;5.80;0.80;;;;;;;17.68;83.87;100820.11;109742;1277;22281;-78
2023/09/30 06:53:57;;;;;;;6.30;0.80;;;;;;;17.62;83.66;100828.08;109760;1280;22286;-79
2023/09/30 06:56:29;;;;;;;6.60;1.00;;;;;;;17.54;83.07;100838.40;109795;1277;23316;-79
2023/09/30 06:59:00;;;;;;;9.10;0.70;;;;;;;17.45;83.37;100843.09;109744;1277;22189;-79
2023/09/30 07:01:33;;;;;;;6.50;0.80;;;;;;;17.40;83.29;100852.27;109766;1283;22321;-79
2023/09/30 07:04:04;;;;;;;5.40;0.70;;;;;;;17.35;83.17;100853.29;109574;1276;22329;-78
2023/09/30 07:06:34;;;;;;;6.10;0.60;;;;;;;17.29;83.08;100858.73;109661;1276;22326;-79
2023/09/30 07:09:06;;;;;;;5.80;0.70;;;;;;;17.24;83.27;100859.69;109699;1277;22412;-79
2023/09/30 07:11:36;;;;;;;3.90;0.70;;;;;;;17.19;83.21;100862.60;109747;1283;22267;-79
2023/09/30 07:14:07;;;;;;;5.60;0.70;;;;;;;17.15;83.05;100868.55;109766;1283;22320;-79
2023/09/30 07:16:39;;;;;;;8.60;1.10;;;;;;;17.12;83.06;100865.30;109778;1273;22207;-79
2023/09/30 07:19:10;;;;;;;11.30;1.70;;;;;;;17.10;83.13;100868.07;109742;1273;22280;-78
2023/09/30 07:21:41;;;;;;;10.70;2.20;;;;;;;17.08;83.01;100872.47;109812;1283;22432;-79
2023/09/30 07:24:12;;;;;;;9.20;1.00;;;;;;;17.07;82.99;100875.59;109790;1277;22247;-80
2023/09/30 07:26:43;;;;;;;5.70;0.90;;;;;;;17.06;82.79;100881.28;109770;1276;22198;-79
2023/09/30 07:29:14;;;;;;;6.40;1.10;;;;;;;17.04;82.47;100888.67;109651;1276;22315;-79
2023/09/30 07:31:44;;;;;;;5.60;1.00;;;;;;;17.02;82.72;100897.90;109800;1277;22963;-81
2023/09/30 07:34:15;;;;;;;4.80;0.70;;;;;;;17.00;82.78;100900.52;109783;1276;22159;-80
2023/09/30 07:36:47;;;;;;;8.10;0.90;;;;;;;17.01;83.09;100905.39;109824;1280;22216;-80
2023/09/30 07:39:18;;;;;;;5.90;1.10;;;;;;;17.02;83.28;100916.26;109788;1283;22974;-81
2023/09/30 07:41:49;;;;;;;8.20;1.70;;;;;;;17.02;83.53;100920.48;109598;1276;22657;-79
2023/09/30 07:44:21;;;;;;;9.00;1.80;;;;;;;17.00;83.56;100925.13;107769;1279;22560;-83
2023/09/30 07:47:09;;;;;;;8.40;1.90;;;;;;;16.97;83.46;100929.42;108565;1276;22564;-81
2023/09/30 07:49:41;;;;;;;10.00;2.00;;;;;;;16.96;83.25;100929.67;107207;1277;22850;-80
2023/09/30 07:52:12;;;;;;;8.00;2.00;;;;;;;16.93;83.40;100932.67;106982;1276;22539;-80
2023/09/30 07:54:44;;;;;;;7.30;2.70;;;;;;;16.91;83.45;100936.11;107165;1276;24501;-79
2023/09/30 07:57:15;;;;;;;11.50;2.20;;;;;;;16.91;83.44;100936.32;106960;1284;22970;-81
2023/09/30 07:59:46;;;;;;;8.10;1.80;;;;;;;16.88;84.18;100947.98;107101;1280;22645;-79
2023/09/30 08:02:17;;;;;;;11.60;1.90;;;;;;;16.79;84.83;100935.81;107010;1280;22539;-80
2023/09/30 08:04:48;;;;;;;5.90;1.60;;;;;;;16.74;84.86;100932.54;107101;1277;22664;-82
2023/09/30 08:07:22;;;;;;;7.70;1.20;;;;;;;16.71;84.72;100933.96;107540;1276;22583;-80
2023/09/30 08:09:54;;;;;;;6.30;1.40;;;;;;;16.65;83.95;100934.04;108415;1276;22796;-79
2023/09/30 08:12:25;;;;;;;9.80;1.40;;;;;;;16.61;83.01;100942.73;107190;1283;22533;-78
2023/09/30 08:14:57;;;;;;;6.40;0.90;;;;;;;16.57;81.93;100939.23;107090;1277;22808;-80
2023/09/30 08:17:28;;;;;;;12.00;1.40;;;;;;;16.54;81.31;100947.77;107146;1277;23149;-79
2023/09/30 08:20:01;;;;;;;8.10;1.00;;;;;;;16.51;81.09;100950.92;109784;1280;22263;-77
2023/09/30 08:22:32;;;;;;;11.50;1.20;;;;;;;16.49;80.57;100955.70;109559;1283;23817;-77
2023/09/30 08:25:05;;;;;;;8.00;1.30;;;;;;;16.48;80.52;100957.52;106952;1283;22550;-77
2023/09/30 08:27:37;;;;;;;10.60;1.10;;;;;;;16.49;80.50;100962.73;106969;1277;22532;-78
2023/09/30 08:30:10;;;;;;;13.80;1.20;;;;;;;16.51;79.82;100965.53;106983;1277;22537;-78
2023/09/30 08:32:41;;;;;;;12.00;1.50;;;;;;;16.51;79.25;100968.70;109782;1277;22962;-78
2023/09/30 08:35:14;;;;;;;7.90;1.10;;;;;;;16.52;79.14;100970.25;109799;1276;23052;-78
2023/09/30 08:37:45;;;;;;;8.10;0.90;;;;;;;16.55;78.86;100968.21;109820;1283;22184;-78
2023/09/30 08:40:20;;;;;;;9.70;0.90;;;;;;;16.59;78.22;100968.04;109765;1280;22225;-78
2023/09/30 08:42:54;;;;;;;8.50;1.40;;;;;;;16.63;77.74;100977.04;109803;1283;22329;-79
2023/09/30 08:45:30;;;;;;;10.00;1.20;;;;;;;16.67;77.67;100982.55;109767;1283;22207;-78
2023/09/30 08:48:05;;;;;;;11.10;1.30;;;;;;;16.72;77.02;100990.98;109787;1277;22171;-78
2023/09/30 08:50:38;;;;;;;12.50;1.20;;;;;;;16.76;77.59;100988.24;109785;1283;23054;-78
2023/09/30 08:53:12;;;;;;;10.40;1.50;;;;;;;16.81;77.62;100988.92;109776;1280;22262;-78
2023/09/30 08:55:44;;;;;;;9.90;1.20;;;;;;;16.86;77.51;100989.37;109784;1277;22344;-78
2023/09/30 08:58:15;;;;;;;10.30;1.20;;;;;;;16.89;76.63;101000.92;109790;1283;22219;-78
2023/09/30 09:00:46;;;;;;;9.30;1.40;;;;;;;16.95;76.75;101000.86;109808;1276;22202;-78
2023/09/30 09:03:19;;;;;;;7.70;1.10;;;;;;;17.05;76.62;100998.84;109797;1277;23436;-79
2023/09/30 09:05:56;;;;;;;8.30;1.10;;;;;;;17.12;75.73;101005.70;109802;1283;22331;-79
2023/09/30 09:08:28;;;;;;;9.80;1.40;;;;;;;17.16;75.28;101015.77;109766;1277;22646;-79
2023/09/30 09:11:04;;;;;;;12.60;2.10;;;;;;;17.11;74.63;101024.16;109762;1279;22172;-78
2023/09/30 09:13:49;;;;;;;7.70;1.30;;;;;;;17.08;75.19;101031.17;109795;1283;22155;-79
2023/09/30 09:16:21;;;;;;;8.40;1.10;;;;;;;17.16;74.69;101030.91;109765;1284;22292;-79
2023/09/30 09:18:51;;;;;;;12.60;1.30;;;;;;;17.30;72.77;101040.00;109765;1283;23350;-80
2023/09/30 09:21:25;;;;;;;11.70;1.40;;;;;;;17.29;71.86;101038.30;109774;1283;22251;-79
2023/09/30 09:23:57;;;;;;;12.80;1.30;;;;;;;17.25;70.85;101048.64;109807;1277;22405;-79
2023/09/30 09:26:29;;;;;;;9.00;1.30;;;;;;;17.24;70.46;101049.30;109794;1283;22216;-78
2023/09/30 09:29:02;;;;;;;8.20;1.00;;;;;;;17.28;70.65;101044.35;109780;1273;22176;-80
2023/09/30 09:31:35;;;;;;;12.40;1.60;;;;;;;17.38;71.65;101042.70;109815;1277;22271;-79
2023/09/30 09:34:15;;;;;;;9.60;1.10;;;;;;;17.45;70.29;101043.04;109789;1283;22558;-78
2023/09/30 09:36:47;;;;;;;6.20;1.10;;;;;;;17.44;69.97;101049.70;109810;1283;22254;-78
2023/09/30 09:39:29;;;;;;;10.60;1.10;;;;;;;17.39;70.20;101043.94;109812;1283;22235;-79
2023/09/30 09:42:01;;;;;;;12.90;1.30;;;;;;;17.34;69.44;101048.64;109844;1283;22220;-79
2023/09/30 09:44:33;;;;;;;8.80;0.90;;;;;;;17.30;69.73;101052.27;109802;1283;22998;-79
2023/09/30 09:47:06;;;;;;;8.10;0.90;;;;;;;17.30;69.09;101044.15;109806;1283;22210;-79
2023/09/30 09:49:38;;;;;;;11.30;1.30;;;;;;;17.33;68.48;101046.33;109765;1283;22362;-80
2023/09/30 09:52:09;;;;;;;11.60;1.20;;;;;;;17.39;65.91;101057.80;109839;1283;22175;-79
2023/09/30 09:54:47;;;;;;;7.40;0.80;;;;;;;17.47;67.47;101049.98;103057;1304;544796;-61
2023/09/30 09:57:19;;;;;;;5.80;0.80;;;;;;;17.51;66.34;101051.16;109809;1283;22301;-61
2023/09/30 09:59:50;;;;;;;6.80;0.80;;;;;;;17.56;64.28;101055.42;109744;1284;22399;-61
2023/09/30 10:02:22;;;;;;;11.80;1.00;;;;;;;17.61;65.21;101048.56;109767;1284;23417;-61
2023/09/30 10:04:55;;;;;;;7.10;0.90;;;;;;;17.62;63.41;101053.56;109781;1284;22219;-61
2023/09/30 10:07:30;;;;;;;8.80;0.80;;;;;;;17.59;64.04;101042.45;110101;1275;195630;-62
2023/09/30 10:10:05;;;;;;;11.80;1.20;;;;;;;17.61;63.36;101040.60;110407;1267;22369;-61
2023/09/30 10:12:40;;;;;;;8.80;0.90;;;;;;;17.64;64.41;101042.30;110419;1268;22247;-61
2023/09/30 10:15:37;;;;;;;8.60;0.80;;;;;;;17.69;64.82;101040.53;110402;1269;22513;-62
2023/09/30 10:18:09;;;;;;;8.70;0.70;;;;;;;17.76;63.39;101040.86;110371;1275;22254;-61
2023/09/30 10:20:44;;;;;;;6.30;0.80;;;;;;;17.81;62.74;101041.07;110429;1271;22350;-61
2023/09/30 10:23:32;;;;;;;8.40;0.90;;;;;;;17.86;62.55;101036.91;110331;1268;22335;-64
2023/09/30 10:26:20;;;;;;;11.30;1.50;;;;;;;17.90;62.13;101037.14;110371;1269;23228;-65
2023/09/30 10:28:51;;;;;;;11.90;1.10;;;;;;;17.94;62.06;101035.81;110365;1271;22375;-61
2023/09/30 10:31:24;;;;;;;5.90;1.40;;;;;;;17.98;61.42;101038.80;110356;1271;22326;-65
2023/09/30 10:34:25;;;;;;;7.60;1.30;;;;;;;17.97;61.41;101040.60;110344;1269;22172;-61
2023/09/30 10:37:31;;;;;;;7.90;0.70;;;;;;;17.95;60.89;101039.36;110403;1267;23394;-61
2023/09/30 10:40:32;;;;;;;5.10;0.90;;;;;;;17.92;60.94;101042.54;110337;1275;22624;-62
2023/09/30 10:43:06;;;;;;;10.30;0.70;;;;;;;17.90;60.73;101042.07;110291;1275;22229;-62
2023/09/30 10:45:49;;;;;;;6.30;0.80;;;;;;;17.91;60.37;101045.35;110427;1275;23279;-61
2023/09/30 10:48:38;;;;;;;8.90;0.80;;;;;;;17.95;60.38;101049.88;110417;1269;22343;-61
2023/09/30 10:51:20;;;;;;;7.60;1.00;;;;;;;17.98;59.77;101047.21;110375;1267;22364;-61
2023/09/30 10:53:56;;;;;;;8.30;0.80;;;;;;;17.98;59.61;101055.04;110399;1269;22333;-61
2023/09/30 10:56:34;;;;;;;9.30;1.20;;;;;;;17.97;59.29;101053.33;110396;1275;22202;-61
2023/09/30 10:59:05;;;;;;;7.60;0.90;;;;;;;17.99;59.24;101056.05;110405;1275;22353;-61
2023/09/30 11:01:36;;;;;;;9.80;0.80;;;;;;;18.00;58.19;101056.48;110401;1275;23320;-61
2023/09/30 11:04:09;;;;;;;10.50;1.10;;;;;;;17.98;58.49;101054.27;110408;1273;22326;-60
2023/09/30 11:06:43;;;;;;;11.50;1.20;;;;;;;17.96;58.33;101056.30;110345;1272;23242;-60
2023/09/30 11:09:19;;;;;;;9.00;1.10;;;;;;;17.95;57.39;101062.31;110401;1274;22339;-61
2023/09/30 11:11:52;;;;;;;14.80;1.60;;;;;;;17.93;57.76;101065.34;110403;1274;22542;-63
2023/09/30 11:14:25;;;;;;;8.70;1.10;;;;;;;17.93;57.57;101058.81;110361;1275;22858;-62
2023/09/30 11:16:59;;;;;;;11.50;1.10;;;;;;;17.96;57.63;101060.38;110395;1275;22170;-62
2023/09/30 11:19:36;;;;;;;9.50;1.00;;;;;;;18.06;58.05;101062.03;110261;1267;22417;-62
2023/09/30 11:22:08;;;;;;;14.60;3.20;;;;;;;18.17;57.68;101056.70;110394;1269;23123;-63
2023/09/30 11:24:39;;;;;;;12.70;1.80;;;;;;;18.23;56.41;101061.33;110365;1272;23151;-63
2023/09/30 11:27:10;;;;;;;8.20;1.20;;;;;;;18.29;55.60;101067.14;110377;1269;22404;-61
2023/09/30 11:29:51;;;;;;;12.80;1.30;;;;;;;18.26;55.53;101067.70;106943;1275;24289;-65
2023/09/30 11:32:45;;;;;;;10.70;1.10;;;;;;;18.22;55.27;101073.09;110309;1261;22447;-62
2023/09/30 11:35:28;;;;;;;8.10;1.00;;;;;;;18.16;53.11;101070.31;109772;1269;22544;-61
2023/09/30 11:38:01;;;;;;;12.50;1.20;;;;;;;18.10;53.01;101066.30;110625;1266;22164;-63